• Join FlightAware (Why Join?)
  • Login
  • US Flag 
02:09PM EST


 

Airport Tracker/Info


-or-


 

Live Flight TrackerFlight Track Log ✈ CES2212 ✈ 07-Sep-2013 ✈ ZLYL / UYN - ZLXY / XIY

Flight Track Log - Related Links

Times and Time Zones

All times are in EDT time to prevent confusion due to time zone crossing. See the CES2212 flight status page for this flight to view local times or setup timezone preferences in your user account.

Time Position Orientation Groundspeed Altitude Reporting Facility
EDT Latitude Longitude Course Direction KTS MPH feet Rate Location/Type
10:13PM 37.4564 109.5144 192° South  Level Estimated
10:14PM 37.3751 109.4930 192° South  Level Estimated
10:15PM 37.2938 109.4716 192° South  Level Estimated
10:16PM 37.2125 109.4503 192° South  Level Estimated
10:17PM 37.1312 109.4290 192° South  Level Estimated
10:18PM 37.0499 109.4078 192° South  Level Estimated
10:19PM 36.9686 109.3866 192° South  Level Estimated
10:20PM 36.8873 109.3655 192° South  Level Estimated
10:21PM 36.8060 109.3444 192° South  Level Estimated
10:22PM 36.7246 109.3233 192° South  Level Estimated
10:23PM 36.6433 109.3024 192° South  Level Estimated
10:24PM 36.5620 109.2814 192° South  Level Estimated
10:25PM 36.4806 109.2605 192° South  Level Estimated
10:26PM 36.3993 109.2396 192° South  Level Estimated
10:27PM 36.3180 109.2188 192° South  Level Estimated
10:28PM 36.2366 109.1980 192° South  Level Estimated
10:29PM 36.1553 109.1773 192° South  Level Estimated
10:30PM 36.0739 109.1566 192° South  Level Estimated
10:31PM 35.9925 109.1359 192° South  Level Estimated
10:32PM 35.9112 109.1153 192° South  Level Estimated
10:33PM 35.8298 109.0947 192° South  Level Estimated
10:34PM 35.7484 109.0742 192° South  Level Estimated
10:35PM 35.6671 109.0537 192° South  Level Estimated
10:36PM 35.5857 109.0333 192° South  Level Estimated
10:37PM 35.5043 109.0129 192° South  Level Estimated
10:38PM 35.4229 108.9925 192° South  Level Estimated
10:39PM 35.3415 108.9722 192° South  Level Estimated
10:40PM 35.2602 108.9519 192° South  Level Estimated
10:41PM 35.1788 108.9317 191° South  Level Estimated
10:42PM 35.0974 108.9115 191° South  Level Estimated
10:43PM 35.0160 108.8913 191° South  Level Estimated
10:44PM 34.9346 108.8712 191° South  Level Estimated
10:45PM 34.8531 108.8511 191° South  Level Estimated
10:46PM 34.7717 108.8311 191° South  Level Estimated
10:47PM 34.6903 108.8111 191° South  Level Estimated
10:48PM 34.6089 108.7911 191° South  Level Estimated
10:49PM 34.5275 108.7712 191° South  Level Estimated
10:50PM 34.4471 108.7516 191° South  Level Estimated
10:51PM 34.4471 108.7516 121° Southeast  Level Estimated
10:52PM 34.4471 108.7516 121° Southeast  Level Estimated
10:53PM 34.4471 108.7516 121° Southeast  Level Estimated
10:54PM 34.4471 108.7516 121° Southeast  Level Estimated
10:55PM 34.4471 108.7516 121° Southeast  Level Estimated
10:56PM 34.4471 108.7516 121° Southeast  Level Estimated
10:57PM 34.4471 108.7516 121° Southeast  Level Estimated
10:58PM 34.4471 108.7516 121° Southeast  Level Estimated
10:59PM 34.4471 108.7516 121° Southeast  Level Estimated
11:00PM 34.4471 108.7516 121° Southeast  Level Estimated
11:01PM 34.4471 108.7516 121° Southeast  Level Estimated
11:02PM 34.4471 108.7516 121° Southeast  Level Estimated
11:03PM 34.4471 108.7516 121° Southeast  Level Estimated
11:04PM 34.4471 108.7516 121° Southeast  Level Estimated
11:05PM 34.4471 108.7516 121° Southeast  Level Estimated